createdAt,value
2018-02-21T00:02:06.490Z,41.42
2018-02-21T00:04:33.925Z,41.67
2018-02-21T00:07:02.301Z,41.90
2018-02-21T00:09:30.536Z,42.40
2018-02-21T00:11:57.968Z,41.37
2018-02-21T00:14:25.458Z,41.63
2018-02-21T00:16:52.901Z,40.53
2018-02-21T00:19:20.340Z,43.30
2018-02-21T00:21:47.933Z,42.33
2018-02-21T00:24:15.414Z,41.70
2018-02-21T00:26:42.871Z,44.90
2018-02-21T00:29:11.077Z,47.15
2018-02-21T00:31:38.581Z,45.33
2018-02-21T00:34:06.023Z,44.42
2018-02-21T00:36:33.508Z,42.65
2018-02-21T00:39:01.099Z,41.35
2018-02-21T00:41:29.513Z,41.50
2018-02-21T00:43:56.966Z,43.17
2018-02-21T00:46:24.440Z,41.42
2018-02-21T00:48:51.883Z,40.30
2018-02-21T00:51:19.321Z,40.35
2018-02-21T00:53:46.957Z,38.85
2018-02-21T00:56:33.173Z,39.58
2018-02-21T00:59:00.914Z,40.28
2018-02-21T01:01:29.310Z,37.47
2018-02-21T01:03:57.520Z,42.05
2018-02-21T01:06:24.963Z,41.35
2018-02-21T01:08:52.560Z,41.45
2018-02-21T01:11:20.973Z,40.88
2018-02-21T01:13:49.196Z,38.42
2018-02-21T01:16:16.640Z,40.08
2018-02-21T01:18:44.328Z,41.45
2018-02-21T01:21:11.793Z,41.50
2018-02-21T01:23:39.228Z,41.10
2018-02-21T01:26:06.757Z,40.08
2018-02-21T01:28:34.215Z,42.00
2018-02-21T01:31:01.681Z,39.40
2018-02-21T01:33:29.121Z,40.63
2018-02-21T01:35:57.348Z,39.65
2018-02-21T01:38:24.788Z,39.55
2018-02-21T01:40:52.281Z,38.30
2018-02-21T01:43:19.721Z,39.78
2018-02-21T01:45:47.188Z,39.22
2018-02-21T01:48:14.629Z,41.70
2018-02-21T01:50:52.104Z,38.88
2018-02-21T01:53:19.547Z,36.95
2018-02-21T01:55:47.101Z,38.47
2018-02-21T01:58:14.545Z,40.10
2018-02-21T02:00:42.784Z,39.40
2018-02-21T02:03:10.405Z,38.47
2018-02-21T02:05:37.871Z,37.05
2018-02-21T02:08:06.080Z,40.10
2018-02-21T02:10:33.679Z,40.60
2018-02-21T02:13:01.886Z,38.40
2018-02-21T02:15:29.396Z,36.63
2018-02-21T02:17:56.836Z,38.90
2018-02-21T02:20:24.300Z,40.00
2018-02-21T02:23:06.538Z,39.00
2018-02-21T02:25:34.949Z,39.40
2018-02-21T02:28:02.384Z,38.28
2018-02-21T02:30:29.822Z,38.88
2018-02-21T02:32:58.105Z,37.67
2018-02-21T02:35:26.310Z,39.60
2018-02-21T02:37:53.796Z,38.15
2018-02-21T02:40:21.264Z,37.95
2018-02-21T02:42:48.741Z,36.72
2018-02-21T02:45:16.966Z,36.42
2018-02-21T02:47:44.413Z,36.90
2018-02-21T02:50:12.006Z,36.60
2018-02-21T02:52:39.452Z,38.15
2018-02-21T02:55:07.318Z,37.13
2018-02-21T02:57:34.764Z,35.42
2018-02-21T03:00:02.226Z,38.20
2018-02-21T03:02:34.893Z,38.03
2018-02-21T03:05:02.336Z,34.97
2018-02-21T03:07:30.125Z,35.50
2018-02-21T03:09:58.297Z,36.80
2018-02-21T03:12:25.749Z,36.13
2018-02-21T03:14:53.357Z,35.30
2018-02-21T03:17:20.830Z,35.13
2018-02-21T03:19:49.040Z,35.53
2018-02-21T03:22:29.208Z,36.22
2018-02-21T03:24:56.653Z,35.25
2018-02-21T03:27:24.253Z,36.95
2018-02-21T03:29:51.693Z,38.10
2018-02-21T03:32:21.961Z,35.58
2018-02-21T03:34:50.173Z,35.90
2018-02-21T03:37:17.685Z,36.35
2018-02-21T03:39:45.899Z,35.47
2018-02-21T03:42:13.564Z,35.85
2018-02-21T03:44:41.022Z,36.90
2018-02-21T03:47:08.456Z,35.63
2018-02-21T03:49:36.692Z,35.20
2018-02-21T03:52:04.160Z,36.22
2018-02-21T03:54:31.596Z,35.13
2018-02-21T03:57:05.420Z,36.22
2018-02-21T03:59:32.892Z,36.58
2018-02-21T04:02:01.185Z,34.45
2018-02-21T04:04:29.415Z,36.05
2018-02-21T04:06:56.888Z,36.40
2018-02-21T04:09:24.337Z,36.78
2018-02-21T04:11:51.784Z,36.70
2018-02-21T04:14:20.499Z,34.25
2018-02-21T04:16:47.948Z,36.80
2018-02-21T04:19:15.405Z,36.92
2018-02-21T04:21:42.892Z,35.85
2018-02-21T04:24:11.102Z,35.95
2018-02-21T04:26:38.566Z,36.22
2018-02-21T04:29:06.009Z,36.45
2018-02-21T04:31:33.626Z,35.90
2018-02-21T04:34:01.840Z,36.13
2018-02-21T04:36:29.278Z,36.60
2018-02-21T04:39:01.560Z,36.60
2018-02-21T04:41:29.001Z,37.90
2018-02-21T04:43:57.213Z,36.75
2018-02-21T04:46:24.808Z,36.83
2018-02-21T04:48:52.249Z,37.80
2018-02-21T04:51:19.712Z,41.10
2018-02-21T04:53:47.210Z,38.50
2018-02-21T04:56:21.109Z,40.03
2018-02-21T04:58:54.305Z,40.03
2018-02-21T05:01:22.710Z,39.70
2018-02-21T05:03:55.157Z,40.35
2018-02-21T05:06:23.385Z,42.53
2018-02-21T05:08:50.825Z,39.60
2018-02-21T05:11:18.404Z,38.38
2018-02-21T05:13:45.846Z,38.88
2018-02-21T05:16:13.284Z,42.70
2018-02-21T05:18:41.195Z,39.97
2018-02-21T05:21:08.641Z,41.80
2018-02-21T05:23:36.071Z,41.13
2018-02-21T05:26:03.532Z,43.33
2018-02-21T05:28:30.969Z,44.20
2018-02-21T05:30:59.612Z,43.87
2018-02-21T05:33:27.056Z,44.17
2018-02-21T05:35:57.069Z,43.50
2018-02-21T05:38:24.612Z,45.60
2018-02-21T05:40:52.052Z,43.60
2018-02-21T05:43:19.518Z,45.70
2018-02-21T05:45:47.088Z,47.17
2018-02-21T05:48:14.529Z,46.05
2018-02-21T05:50:41.974Z,46.17
2018-02-21T05:53:10.717Z,44.50
2018-02-21T05:55:38.161Z,45.72
2018-02-21T05:58:05.618Z,42.38
2018-02-21T06:00:33.073Z,43.90
2018-02-21T06:03:01.277Z,43.50
2018-02-21T06:05:29.788Z,45.83
2018-02-21T06:07:57.989Z,45.53
2018-02-21T06:10:25.526Z,45.78
2018-02-21T06:12:53.741Z,46.55
2018-02-21T06:15:21.256Z,45.28
2018-02-21T06:17:49.517Z,44.35
2018-02-21T06:20:17.146Z,45.28
2018-02-21T06:22:44.685Z,45.70
2018-02-21T06:25:13.593Z,44.63
2018-02-21T06:27:41.199Z,46.58
2018-02-21T06:30:08.785Z,44.80
2018-02-21T06:32:36.236Z,46.03
2018-02-21T06:35:03.963Z,45.03
2018-02-21T06:37:31.514Z,46.10
2018-02-21T06:39:58.953Z,46.25
2018-02-21T06:42:27.407Z,46.40
2018-02-21T06:44:54.964Z,45.10
2018-02-21T06:47:22.412Z,73.60
2018-02-21T06:49:49.921Z,79.32
2018-02-21T06:52:17.369Z,142.02
2018-02-21T06:54:44.841Z,128.93
2018-02-21T06:57:12.284Z,48.80
2018-02-21T06:59:39.928Z,47.42
2018-02-21T07:02:09.373Z,46.70
2018-02-21T07:04:36.816Z,46.08
2018-02-21T07:07:06.816Z,44.67
2018-02-21T07:09:34.285Z,44.05
2018-02-21T07:12:01.720Z,44.92
2018-02-21T07:14:29.281Z,46.55
2018-02-21T07:16:56.736Z,46.10
2018-02-21T07:19:24.182Z,42.22
2018-02-21T07:21:57.817Z,44.85
2018-02-21T07:24:25.265Z,45.30
2018-02-21T07:26:52.728Z,48.65
2018-02-21T07:29:20.821Z,47.20
2018-02-21T07:31:48.263Z,47.95
2018-02-21T07:34:15.710Z,50.10
2018-02-21T07:36:43.276Z,50.67
2018-02-21T07:39:10.741Z,49.05
2018-02-21T07:41:38.209Z,51.70
2018-02-21T07:44:09.762Z,47.30
2018-02-21T07:46:37.185Z,50.92
2018-02-21T07:49:04.656Z,52.28
2018-02-21T07:51:32.421Z,50.85
2018-02-21T07:53:59.868Z,51.75
2018-02-21T07:56:27.314Z,51.85
2018-02-21T07:58:54.873Z,49.70
2018-02-21T08:01:22.314Z,50.78
2018-02-21T08:03:49.780Z,51.60
2018-02-21T08:06:24.017Z,48.92
2018-02-21T08:08:51.466Z,53.97
2018-02-21T08:11:18.929Z,55.47
2018-02-21T08:13:46.387Z,50.70
2018-02-21T08:16:13.960Z,54.00
2018-02-21T08:18:41.409Z,50.70
2018-02-21T08:21:08.976Z,52.50
2018-02-21T08:23:36.418Z,51.37
2018-02-21T08:26:04.612Z,50.88
2018-02-21T08:28:32.085Z,49.08
2018-02-21T08:30:59.581Z,50.65
2018-02-21T08:33:27.020Z,50.53
2018-02-21T08:35:55.240Z,48.20
2018-02-21T08:38:22.853Z,46.92
2018-02-21T08:40:50.300Z,48.87
2018-02-21T08:43:17.818Z,50.35
2018-02-21T08:45:45.300Z,48.28
2018-02-21T08:48:12.740Z,48.47
2018-02-21T08:50:40.191Z,48.33
2018-02-21T08:53:08.898Z,48.78
2018-02-21T08:55:37.697Z,46.10
2018-02-21T08:58:05.141Z,44.55
2018-02-21T09:00:32.577Z,44.33
2018-02-21T09:03:00.085Z,42.90
2018-02-21T09:05:27.564Z,43.67
2018-02-21T09:07:55.765Z,42.42
2018-02-21T09:10:23.194Z,44.15
2018-02-21T09:12:51.684Z,42.20
2018-02-21T09:15:19.118Z,39.42
2018-02-21T09:17:46.585Z,39.65
2018-02-21T09:20:15.014Z,40.15
2018-02-21T09:22:42.476Z,40.15
2018-02-21T09:25:09.917Z,38.78
2018-02-21T09:27:38.636Z,38.85
2018-02-21T09:30:06.069Z,39.80
2018-02-21T09:32:33.524Z,37.53
2018-02-21T09:35:00.988Z,39.20
2018-02-21T09:37:28.424Z,37.13
2018-02-21T09:39:56.029Z,33.05
2018-02-21T09:42:23.474Z,36.40
2018-02-21T09:44:50.935Z,35.80
2018-02-21T09:47:18.384Z,35.08
2018-02-21T09:49:45.844Z,33.33
2018-02-21T09:52:13.280Z,33.50
2018-02-21T09:54:40.813Z,33.25
2018-02-21T09:57:09.024Z,32.35
2018-02-21T09:59:37.257Z,30.55
2018-02-21T10:02:05.888Z,31.62
2018-02-21T10:04:33.384Z,29.77
2018-02-21T10:07:00.822Z,31.23
2018-02-21T10:09:31.893Z,31.30
2018-02-21T10:12:00.098Z,31.17
2018-02-21T10:14:27.609Z,30.50
2018-02-21T10:16:55.045Z,29.85
2018-02-21T10:19:22.640Z,31.02
2018-02-21T10:21:50.081Z,29.58
2018-02-21T10:24:17.560Z,28.70
2018-02-21T10:26:45.776Z,28.52
2018-02-21T10:29:14.223Z,27.45
2018-02-21T10:31:42.426Z,26.48
2018-02-21T10:34:10.935Z,26.87
2018-02-21T10:36:38.380Z,27.85
2018-02-21T10:39:05.889Z,27.50
2018-02-21T10:41:34.099Z,26.80
2018-02-21T10:44:01.537Z,26.50
2018-02-21T10:46:29.756Z,26.30
2018-02-21T10:48:57.300Z,26.55
2018-02-21T10:51:25.246Z,26.00
2018-02-21T10:53:52.681Z,25.73
2018-02-21T10:56:20.885Z,27.77
2018-02-21T10:58:52.610Z,28.00
2018-02-21T11:01:25.009Z,27.10
2018-02-21T11:03:52.669Z,26.52
2018-02-21T11:06:20.104Z,27.27
2018-02-21T11:08:48.397Z,27.20
2018-02-21T11:11:16.605Z,27.65
2018-02-21T11:13:44.060Z,28.62
2018-02-21T11:16:11.540Z,26.37
2018-02-21T11:18:39.213Z,27.05
2018-02-21T11:21:06.649Z,27.55
2018-02-21T11:23:34.151Z,27.35
2018-02-21T11:26:01.757Z,26.52
2018-02-21T11:28:32.920Z,25.23
2018-02-21T11:31:00.357Z,25.70
2018-02-21T11:33:27.793Z,25.42
2018-02-21T11:35:55.264Z,24.70
2018-02-21T11:38:22.745Z,26.37
2018-02-21T11:40:50.195Z,23.00
2018-02-21T11:43:17.641Z,23.77
2018-02-21T11:45:45.999Z,25.42
2018-02-21T11:48:13.479Z,23.73
2018-02-21T11:50:40.916Z,24.55
2018-02-21T11:53:08.357Z,24.27
2018-02-21T11:55:36.604Z,24.23
2018-02-21T11:58:04.045Z,24.77
2018-02-21T12:00:31.488Z,23.60
2018-02-21T12:02:59.089Z,24.15
2018-02-21T12:05:26.526Z,24.45
2018-02-21T12:07:54.114Z,24.10
2018-02-21T12:10:21.577Z,24.20
2018-02-21T12:12:55.113Z,24.85
2018-02-21T12:15:22.549Z,23.67
2018-02-21T12:17:50.755Z,24.70
2018-02-21T12:20:18.321Z,31.87
2018-02-21T12:22:45.789Z,29.73
2018-02-21T12:25:13.245Z,28.70
2018-02-21T12:27:40.777Z,28.80
2018-02-21T12:30:08.221Z,31.67
2018-02-21T12:32:36.444Z,31.95
2018-02-21T12:35:03.881Z,31.25
2018-02-21T12:37:31.322Z,30.15
2018-02-21T12:39:59.096Z,30.17
2018-02-21T12:42:26.537Z,31.23
2018-02-21T12:44:53.960Z,31.60
2018-02-21T12:47:21.493Z,33.40
2018-02-21T12:49:48.960Z,34.45
2018-02-21T12:52:16.401Z,33.05
2018-02-21T12:54:43.856Z,33.72
2018-02-21T12:57:11.301Z,34.65
2018-02-21T12:59:43.788Z,33.33
2018-02-21T13:02:11.221Z,32.78
2018-02-21T13:04:38.685Z,34.15
2018-02-21T13:07:07.111Z,37.40
2018-02-21T13:09:34.572Z,34.28
2018-02-21T13:12:02.036Z,36.28
2018-02-21T13:14:29.460Z,36.38
2018-02-21T13:16:57.109Z,36.40
2018-02-21T13:19:24.532Z,37.10
2018-02-21T13:21:52.740Z,36.00
2018-02-21T13:24:20.625Z,36.35
2018-02-21T13:26:48.064Z,35.42
2018-02-21T13:29:15.544Z,35.22
2018-02-21T13:31:43.009Z,35.20
2018-02-21T13:34:10.448Z,37.67
2018-02-21T13:36:37.997Z,33.90
2018-02-21T13:39:05.429Z,33.58
2018-02-21T13:41:32.920Z,33.65
2018-02-21T13:44:00.393Z,35.40
2018-02-21T13:46:27.825Z,34.05
2018-02-21T13:48:55.322Z,34.42
2018-02-21T13:51:22.790Z,34.90
2018-02-21T13:53:50.216Z,35.92
2018-02-21T13:56:17.653Z,34.58
2018-02-21T13:58:45.112Z,33.35
2018-02-21T14:01:12.832Z,34.10
2018-02-21T14:03:46.870Z,34.53
2018-02-21T14:06:14.300Z,36.05
2018-02-21T14:08:42.504Z,34.85
2018-02-21T14:11:10.001Z,34.75
2018-02-21T14:13:37.432Z,35.70
2018-02-21T14:16:05.640Z,34.40
2018-02-21T14:18:33.079Z,35.33
2018-02-21T14:21:00.564Z,35.63
2018-02-21T14:23:28.004Z,33.05
2018-02-21T14:25:55.545Z,33.67
2018-02-21T14:28:22.984Z,33.95
2018-02-21T14:30:50.420Z,33.72
2018-02-21T14:33:18.657Z,33.72
2018-02-21T14:35:46.105Z,34.78
2018-02-21T14:38:13.542Z,33.38
2018-02-21T14:40:41.068Z,33.70
2018-02-21T14:43:12.893Z,32.90
2018-02-21T14:45:40.329Z,33.22
2018-02-21T14:48:07.846Z,32.83
2018-02-21T14:50:36.055Z,30.95
2018-02-21T14:53:03.472Z,34.50
2018-02-21T14:55:31.842Z,33.38
2018-02-21T14:57:59.314Z,33.60
2018-02-21T15:00:28.490Z,35.05
2018-02-21T15:02:56.269Z,36.90
2018-02-21T15:05:24.500Z,35.45
2018-02-21T15:07:51.932Z,35.22
2018-02-21T15:10:19.529Z,36.20
2018-02-21T15:12:46.960Z,37.28
2018-02-21T15:15:14.430Z,35.53
2018-02-21T15:17:41.927Z,34.63
2018-02-21T15:20:09.353Z,37.97
2018-02-21T15:22:36.802Z,33.20
2018-02-21T15:25:04.242Z,33.78
2018-02-21T15:27:31.787Z,34.80
2018-02-21T15:29:59.212Z,33.78
2018-02-21T15:32:26.697Z,34.17
2018-02-21T15:34:54.901Z,34.10
2018-02-21T15:37:22.368Z,33.70
2018-02-21T15:39:49.837Z,32.97
2018-02-21T15:42:17.276Z,33.30
2018-02-21T15:44:44.830Z,33.33
2018-02-21T15:47:12.311Z,35.08
2018-02-21T15:49:40.705Z,32.72
2018-02-21T15:52:08.145Z,32.63
2018-02-21T15:54:35.601Z,32.55
2018-02-21T15:57:03.040Z,32.92
2018-02-21T15:59:30.711Z,32.35
2018-02-21T16:01:58.145Z,31.70
2018-02-21T16:04:25.638Z,32.80
2018-02-21T16:07:16.940Z,32.38
2018-02-21T16:09:44.402Z,31.77
2018-02-21T16:12:11.846Z,32.00
2018-02-21T16:14:40.142Z,30.00
2018-02-21T16:17:07.623Z,30.75
2018-02-21T16:19:35.885Z,30.02
2018-02-21T16:22:03.317Z,30.50
2018-02-21T16:24:30.784Z,30.08
2018-02-21T16:26:58.296Z,28.15
2018-02-21T16:29:27.487Z,28.42
2018-02-21T16:31:54.928Z,26.77
2018-02-21T16:34:22.462Z,27.83
2018-02-21T16:36:49.927Z,27.15
2018-02-21T16:39:17.376Z,27.00
2018-02-21T16:41:45.034Z,26.35
2018-02-21T16:44:15.492Z,27.30
2018-02-21T16:46:42.928Z,26.90
2018-02-21T16:49:10.600Z,26.77
2018-02-21T16:51:38.078Z,32.40
2018-02-21T16:54:12.158Z,28.02
2018-02-21T16:56:39.944Z,28.98
2018-02-21T16:59:07.377Z,26.50
2018-02-21T17:01:34.815Z,28.17
2018-02-21T17:04:07.847Z,27.77
2018-02-21T17:06:35.281Z,25.33
2018-02-21T17:09:02.726Z,26.70
2018-02-21T17:11:32.452Z,24.55
2018-02-21T17:13:59.899Z,27.42
2018-02-21T17:16:27.403Z,24.50
2018-02-21T17:18:54.841Z,26.15
2018-02-21T17:21:22.289Z,26.67
2018-02-21T17:23:49.782Z,24.75
2018-02-21T17:26:17.981Z,24.60
2018-02-21T17:28:45.417Z,27.25
2018-02-21T17:31:14.654Z,25.15
2018-02-21T17:33:42.084Z,25.48
2018-02-21T17:36:10.296Z,28.75
2018-02-21T17:38:38.279Z,26.90
2018-02-21T17:41:11.504Z,24.08
2018-02-21T17:43:41.151Z,23.50
2018-02-21T17:46:09.620Z,23.60
2018-02-21T17:48:37.084Z,22.45
2018-02-21T17:51:04.516Z,23.62
2018-02-21T17:53:32.717Z,26.25
2018-02-21T17:56:01.542Z,22.77
2018-02-21T17:58:28.977Z,23.12
2018-02-21T18:00:56.458Z,24.08
2018-02-21T18:03:23.898Z,22.20
2018-02-21T18:05:55.281Z,22.70
2018-02-21T18:08:22.755Z,24.58
2018-02-21T18:10:50.256Z,23.40
2018-02-21T18:13:17.699Z,24.37
2018-02-21T18:15:45.160Z,25.23
2018-02-21T18:18:12.629Z,23.27
2018-02-21T18:20:40.070Z,24.80
2018-02-21T18:23:07.524Z,24.42
2018-02-21T18:25:41.066Z,21.90
2018-02-21T18:28:08.502Z,23.60
2018-02-21T18:30:37.642Z,25.98
2018-02-21T18:33:05.102Z,23.75
2018-02-21T18:35:32.560Z,26.02
2018-02-21T18:38:00.002Z,24.92
2018-02-21T18:40:27.956Z,25.08
2018-02-21T18:42:55.417Z,24.55
2018-02-21T18:45:31.819Z,25.23
2018-02-21T18:48:00.033Z,25.30
2018-02-21T18:50:28.295Z,24.67
2018-02-21T18:52:55.739Z,23.98
2018-02-21T18:55:23.947Z,25.42
2018-02-21T18:57:51.622Z,25.70
2018-02-21T19:00:20.964Z,26.40
2018-02-21T19:02:48.405Z,26.17
2018-02-21T19:05:15.868Z,33.70
2018-02-21T19:07:43.308Z,27.80
2018-02-21T19:10:10.798Z,27.10
2018-02-21T19:12:45.069Z,29.60
2018-02-21T19:15:12.652Z,25.08
2018-02-21T19:17:40.110Z,27.10
2018-02-21T19:20:07.600Z,25.80
2018-02-21T19:22:35.808Z,25.48
2018-02-21T19:25:19.356Z,25.77
2018-02-21T19:27:46.802Z,24.92
2018-02-21T19:30:14.245Z,25.52
2018-02-21T19:32:41.833Z,25.80
2018-02-21T19:35:09.289Z,24.65
2018-02-21T19:37:36.734Z,26.55
2018-02-21T19:40:04.253Z,22.87
2018-02-21T19:42:31.785Z,25.08
2018-02-21T19:44:59.232Z,24.92
2018-02-21T19:47:26.673Z,24.80
2018-02-21T19:49:54.197Z,24.10
2018-02-21T19:52:22.402Z,24.73
2018-02-21T19:54:49.873Z,23.55
2018-02-21T19:57:17.316Z,25.45
2018-02-21T19:59:49.832Z,24.87
2018-02-21T20:02:17.268Z,23.80
2018-02-21T20:04:44.733Z,25.65
2018-02-21T20:07:12.182Z,24.30
2018-02-21T20:09:39.645Z,24.67
2018-02-21T20:12:07.080Z,25.48
2018-02-21T20:14:34.544Z,24.33
2018-02-21T20:17:01.993Z,25.00
2018-02-21T20:19:29.504Z,24.52
2018-02-21T20:21:57.717Z,25.05
2018-02-21T20:24:25.185Z,25.50
2018-02-21T20:26:52.745Z,26.23
2018-02-21T20:29:20.228Z,25.33
2018-02-21T20:31:51.601Z,24.30
2018-02-21T20:34:19.046Z,25.08
2018-02-21T20:36:46.613Z,26.87
2018-02-21T20:39:14.064Z,27.25
2018-02-21T20:41:41.508Z,25.30
2018-02-21T20:44:09.013Z,26.52
2018-02-21T20:46:37.222Z,26.30
2018-02-21T20:49:04.688Z,27.77
2018-02-21T20:51:32.136Z,26.35
2018-02-21T20:53:59.669Z,26.35
2018-02-21T20:56:27.149Z,27.75
2018-02-21T20:58:56.554Z,25.75
2018-02-21T21:01:23.993Z,28.25
2018-02-21T21:03:51.521Z,25.90
2018-02-21T21:06:18.960Z,27.65
2018-02-21T21:08:46.513Z,26.65
2018-02-21T21:11:14.661Z,25.52
2018-02-21T21:13:43.084Z,26.27
2018-02-21T21:16:10.548Z,25.23
2018-02-21T21:18:38.016Z,26.77
2018-02-21T21:21:06.561Z,26.80
2018-02-21T21:23:34.003Z,29.58
2018-02-21T21:26:01.447Z,27.92
2018-02-21T21:28:28.950Z,27.58
2018-02-21T21:30:56.394Z,28.05
2018-02-21T21:33:23.833Z,30.80
2018-02-21T21:35:51.336Z,28.83
2018-02-21T21:38:18.809Z,29.23
2018-02-21T21:40:47.020Z,29.05
2018-02-21T21:43:15.003Z,28.05
2018-02-21T21:45:42.443Z,28.77
2018-02-21T21:48:09.875Z,29.77
2018-02-21T21:50:42.136Z,31.15
2018-02-21T21:53:28.509Z,28.67
2018-02-21T21:55:55.954Z,31.60
2018-02-21T21:58:23.446Z,28.60
2018-02-21T22:00:58.434Z,29.40
2018-02-21T22:03:25.916Z,30.20
2018-02-21T22:05:53.363Z,28.83
2018-02-21T22:08:20.803Z,29.25
2018-02-21T22:10:48.589Z,29.70
2018-02-21T22:13:16.169Z,30.33
2018-02-21T22:15:43.612Z,28.52
2018-02-21T22:18:11.204Z,30.88
2018-02-21T22:20:39.440Z,30.23
2018-02-21T22:23:06.921Z,30.45
2018-02-21T22:25:34.372Z,30.05
2018-02-21T22:28:02.034Z,30.20
2018-02-21T22:30:29.475Z,29.65
2018-02-21T22:32:56.916Z,29.05
2018-02-21T22:35:24.386Z,30.73
2018-02-21T22:37:52.657Z,29.45
2018-02-21T22:40:20.091Z,30.37
2018-02-21T22:42:47.520Z,29.33
2018-02-21T22:45:28.249Z,30.80
2018-02-21T22:47:58.221Z,30.80
2018-02-21T22:50:25.656Z,30.42
2018-02-21T22:52:53.893Z,31.17
2018-02-21T22:55:21.341Z,34.03
2018-02-21T22:57:48.955Z,30.45
2018-02-21T23:00:19.556Z,28.95
2018-02-21T23:02:47.006Z,29.58
2018-02-21T23:05:14.581Z,30.00
2018-02-21T23:07:42.024Z,29.83
2018-02-21T23:10:09.463Z,29.95
2018-02-21T23:12:53.021Z,29.17
2018-02-21T23:15:20.462Z,28.58
2018-02-21T23:17:47.948Z,29.15
2018-02-21T23:20:18.371Z,29.95
2018-02-21T23:22:45.815Z,29.08
2018-02-21T23:25:13.305Z,28.40
2018-02-21T23:27:41.508Z,29.55
2018-02-21T23:30:08.953Z,27.62
2018-02-21T23:32:48.320Z,28.75
2018-02-21T23:35:15.766Z,28.10
2018-02-21T23:37:43.232Z,26.92
2018-02-21T23:40:10.671Z,29.70
2018-02-21T23:42:38.133Z,27.70
2018-02-21T23:45:05.576Z,28.55
2018-02-21T23:47:33.941Z,29.60
2018-02-21T23:50:01.370Z,29.85
2018-02-21T23:52:32.749Z,27.60
2018-02-21T23:55:00.960Z,27.92
2018-02-21T23:57:28.420Z,28.15
2018-02-21T23:59:55.856Z,26.98
